Time;durP1;ratioP1;P1;durP2;ratioP2;P2;SDS_P1;SDS_P2;PMS_P1;PMS_P2;Temp;Humidity;BMP_temperature;BMP_pressure;BME280_temperature;BME280_humidity;BME280_pressure;Samples;Min_cycle;Max_cycle;Signal;HPM_P1;HPM_P2
2023/11/29 00:01:01;;;;;;;15.07;6.63;;;2.00;99.90;;;;;;6243890;28;20172;-83
2023/11/29 00:04:02;;;;;;;14.05;6.40;;;2.00;99.90;;;;;;6267865;28;20585;-82
2023/11/29 00:07:04;;;;;;;18.15;7.57;;;2.00;99.90;;;;;;6243979;28;20054;-82
2023/11/29 00:10:06;;;;;;;15.02;6.72;;;2.00;99.90;;;;;;6267871;28;20103;-82
2023/11/29 00:13:07;;;;;;;15.65;7.05;;;2.00;99.90;;;;;;6248246;28;20060;-83
2023/11/29 00:16:10;;;;;;;14.43;6.70;;;2.00;99.90;;;;;;6244469;28;20056;-82
2023/11/29 00:19:11;;;;;;;15.50;7.38;;;1.90;99.90;;;;;;6266182;28;20049;-82
2023/11/29 00:22:13;;;;;;;14.38;6.60;;;1.90;99.90;;;;;;6243778;28;20627;-84
2023/11/29 00:25:14;;;;;;;14.30;7.10;;;2.00;99.90;;;;;;6268430;28;20135;-82
2023/11/29 00:28:16;;;;;;;14.65;7.15;;;1.90;99.90;;;;;;6253694;28;20504;-82
2023/11/29 00:31:18;;;;;;;11.98;6.72;;;1.90;99.90;;;;;;6245361;28;20080;-82
2023/11/29 00:34:20;;;;;;;17.38;6.90;;;1.90;99.90;;;;;;6270801;28;20110;-82
2023/11/29 00:37:21;;;;;;;12.57;6.60;;;1.80;99.90;;;;;;6228349;28;20081;-82
2023/11/29 00:40:23;;;;;;;15.98;6.85;;;1.80;99.90;;;;;;6269498;28;20507;-82
2023/11/29 00:43:24;;;;;;;18.13;6.97;;;1.70;99.90;;;;;;6254365;28;20057;-82
2023/11/29 00:46:26;;;;;;;17.02;7.82;;;1.70;99.90;;;;;;6245222;28;20045;-83
2023/11/29 00:49:28;;;;;;;17.10;7.75;;;1.70;99.90;;;;;;6267451;28;20179;-82
2023/11/29 00:52:30;;;;;;;16.85;7.00;;;1.70;99.90;;;;;;6247241;28;20068;-82
2023/11/29 00:55:31;;;;;;;19.85;7.53;;;1.70;99.90;;;;;;6272058;28;20053;-82
2023/11/29 00:58:36;;;;;;;14.52;7.00;;;1.80;99.90;;;;;;6253400;28;20052;-82
2023/11/29 01:01:38;;;;;;;17.33;7.07;;;1.80;99.90;;;;;;6248228;28;20101;-82
2023/11/29 01:04:39;;;;;;;14.57;6.88;;;1.90;99.90;;;;;;6272206;28;20060;-82
2023/11/29 01:07:41;;;;;;;16.40;7.47;;;2.00;99.90;;;;;;6248740;28;20057;-82
2023/11/29 01:10:42;;;;;;;16.83;7.00;;;2.10;99.90;;;;;;6272342;28;20175;-82
2023/11/29 01:13:44;;;;;;;14.60;6.90;;;2.20;99.90;;;;;;6261327;28;20057;-82
2023/11/29 01:16:46;;;;;;;13.90;6.68;;;2.20;99.90;;;;;;6248505;28;20073;-81
2023/11/29 01:19:47;;;;;;;18.08;6.38;;;2.20;99.90;;;;;;6238829;28;20103;-82
2023/11/29 01:22:49;;;;;;;14.80;6.18;;;2.20;99.90;;;;;;6271593;28;20573;-81
2023/11/29 01:25:51;;;;;;;14.25;6.38;;;2.30;99.90;;;;;;6229912;28;20053;-82
2023/11/29 01:28:52;;;;;;;13.93;6.80;;;2.30;99.90;;;;;;6254961;28;20060;-82
2023/11/29 01:31:54;;;;;;;12.65;6.00;;;2.30;99.90;;;;;;6271125;28;20146;-82
2023/11/29 01:34:55;;;;;;;16.05;6.55;;;2.40;99.90;;;;;;6229520;28;20049;-82
2023/11/29 01:37:58;;;;;;;14.38;6.82;;;2.40;99.90;;;;;;6269536;28;20833;-82
2023/11/29 01:40:59;;;;;;;12.23;5.97;;;2.50;99.90;;;;;;6246683;28;20065;-82
2023/11/29 01:44:01;;;;;;;16.70;6.80;;;2.50;99.90;;;;;;6249045;28;20195;-82
2023/11/29 01:47:02;;;;;;;14.10;6.47;;;2.60;99.90;;;;;;6271000;28;20049;-82
2023/11/29 01:50:04;;;;;;;12.70;6.20;;;2.50;99.90;;;;;;6246646;28;20064;-82
2023/11/29 01:53:06;;;;;;;13.32;6.30;;;2.60;99.90;;;;;;6270608;28;20057;-82
2023/11/29 01:56:14;;;;;;;15.90;6.38;;;2.60;99.90;;;;;;6246540;28;20060;-82
2023/11/29 01:59:16;;;;;;;13.05;6.57;;;2.70;99.90;;;;;;6266161;28;20458;-83
2023/11/29 02:02:17;;;;;;;12.45;6.00;;;2.80;99.90;;;;;;6245476;28;20111;-84
2023/11/29 02:05:19;;;;;;;11.90;5.78;;;2.80;99.90;;;;;;6252329;28;20140;-83
2023/11/29 02:08:21;;;;;;;11.32;5.57;;;2.90;99.90;;;;;;6229170;28;20050;-84
2023/11/29 02:11:23;;;;;;;13.75;6.30;;;3.00;99.90;;;;;;6270274;28;20051;-81
2023/11/29 02:14:24;;;;;;;20.13;5.85;;;3.00;99.90;;;;;;6243485;28;20061;-83
2023/11/29 02:17:26;;;;;;;12.60;6.00;;;3.00;99.90;;;;;;6252439;28;20222;-82
2023/11/29 02:20:28;;;;;;;16.48;5.70;;;3.00;99.90;;;;;;6249534;28;20053;-82
2023/11/29 02:23:30;;;;;;;10.38;5.32;;;3.00;99.90;;;;;;6269778;28;20064;-81
2023/11/29 02:26:31;;;;;;;13.18;6.03;;;3.00;99.90;;;;;;6246097;28;20053;-82
2023/11/29 02:29:33;;;;;;;12.75;5.72;;;3.10;99.90;;;;;;6250269;28;20064;-82
2023/11/29 02:32:35;;;;;;;12.00;5.53;;;3.20;99.90;;;;;;6270120;28;20103;-82
2023/11/29 02:35:36;;;;;;;10.50;5.30;;;3.20;99.90;;;;;;6228379;28;20057;-82
2023/11/29 02:38:38;;;;;;;10.95;4.95;;;3.30;99.90;;;;;;6251570;28;20053;-82
2023/11/29 02:41:39;;;;;;;9.70;5.13;;;3.40;99.90;;;;;;6270228;28;20052;-82
2023/11/29 02:44:41;;;;;;;11.23;5.60;;;3.50;99.90;;;;;;6244448;28;20057;-83
2023/11/29 02:47:43;;;;;;;13.65;5.65;;;3.50;99.90;;;;;;6269278;28;20126;-83
2023/11/29 02:50:44;;;;;;;11.45;5.43;;;3.50;99.90;;;;;;6245619;28;20107;-83
2023/11/29 02:53:46;;;;;;;11.52;4.80;;;3.60;99.90;;;;;;6269397;28;20053;-84
2023/11/29 02:56:48;;;;;;;11.43;5.40;;;3.60;99.90;;;;;;6245635;28;20150;-83
2023/11/29 02:59:49;;;;;;;11.35;4.90;;;3.70;99.90;;;;;;6244653;28;20102;-83
2023/11/29 03:02:51;;;;;;;10.68;4.93;;;3.60;99.90;;;;;;6227348;28;20094;-84
2023/11/29 03:05:53;;;;;;;8.35;4.30;;;3.70;99.90;;;;;;6267195;28;20060;-83
2023/11/29 03:08:54;;;;;;;10.25;4.85;;;3.70;99.90;;;;;;6227725;28;20058;-83
2023/11/29 03:11:56;;;;;;;10.70;4.72;;;3.70;99.90;;;;;;6269113;28;20056;-83
2023/11/29 03:14:57;;;;;;;10.68;4.63;;;3.80;99.90;;;;;;6243423;28;20068;-83
2023/11/29 03:17:59;;;;;;;7.82;4.30;;;3.80;99.90;;;;;;6268737;28;20401;-84
2023/11/29 03:21:01;;;;;;;11.35;4.60;;;3.70;99.90;;;;;;6245071;28;20192;-83
2023/11/29 03:24:03;;;;;;;9.63;5.00;;;3.80;99.90;;;;;;6268530;28;20496;-83
2023/11/29 03:27:04;;;;;;;11.07;4.57;;;3.80;99.90;;;;;;6245499;28;20162;-83
2023/11/29 03:30:06;;;;;;;10.95;4.97;;;3.80;99.90;;;;;;6269526;28;20056;-84
2023/11/29 03:33:08;;;;;;;9.38;4.55;;;3.90;99.90;;;;;;6245745;28;20053;-84
2023/11/29 03:36:09;;;;;;;10.05;4.95;;;3.90;99.90;;;;;;6270955;28;20048;-84
2023/11/29 03:39:11;;;;;;;9.50;4.68;;;3.90;99.90;;;;;;6256230;28;20663;-84
2023/11/29 03:42:12;;;;;;;12.30;5.22;;;4.00;99.90;;;;;;6245069;28;20049;-84
2023/11/29 03:45:14;;;;;;;11.35;5.00;;;4.00;99.90;;;;;;6264231;28;20064;-84
2023/11/29 03:48:15;;;;;;;8.50;4.82;;;4.00;99.90;;;;;;6244624;28;20046;-84
2023/11/29 03:51:17;;;;;;;8.43;4.57;;;4.00;99.90;;;;;;6268517;28;20057;-84
2023/11/29 03:54:19;;;;;;;10.50;4.55;;;4.00;99.90;;;;;;6245460;28;20049;-84
2023/11/29 03:57:20;;;;;;;10.07;5.00;;;4.10;99.90;;;;;;6266886;28;20057;-84
2023/11/29 04:00:22;;;;;;;13.82;5.25;;;4.10;99.90;;;;;;6222982;28;20049;-84
2023/11/29 04:03:23;;;;;;;11.32;4.75;;;4.00;99.90;;;;;;6244599;28;20053;-84
2023/11/29 04:06:25;;;;;;;10.60;5.30;;;4.10;99.90;;;;;;6268350;28;20068;-82
2023/11/29 04:09:26;;;;;;;11.15;5.05;;;4.10;99.90;;;;;;6246036;28;20509;-82
2023/11/29 04:12:28;;;;;;;12.05;5.45;;;4.00;99.90;;;;;;6267626;28;20085;-82
2023/11/29 04:15:30;;;;;;;11.43;5.50;;;4.00;99.90;;;;;;6245094;28;20061;-82
2023/11/29 04:18:31;;;;;;;9.75;5.30;;;4.00;99.90;;;;;;6247070;28;20053;-82
2023/11/29 04:21:33;;;;;;;10.63;5.22;;;4.00;99.90;;;;;;6271614;28;20099;-82
2023/11/29 04:24:34;;;;;;;11.52;5.38;;;4.00;99.90;;;;;;6247754;28;20064;-83
2023/11/29 04:27:37;;;;;;;12.77;5.90;;;3.90;99.90;;;;;;6269566;28;20049;-82
2023/11/29 04:30:39;;;;;;;10.52;5.45;;;3.80;99.90;;;;;;6249607;28;20086;-82
2023/11/29 04:33:41;;;;;;;10.40;5.20;;;3.80;99.90;;;;;;6248924;28;20049;-83
2023/11/29 04:36:42;;;;;;;12.30;5.00;;;3.80;99.90;;;;;;6272481;28;20428;-83
2023/11/29 04:39:44;;;;;;;10.75;5.13;;;3.70;99.90;;;;;;6264268;28;20057;-83
2023/11/29 04:42:46;;;;;;;11.48;5.10;;;3.60;99.90;;;;;;6250510;28;20057;-84
2023/11/29 04:45:47;;;;;;;10.95;5.03;;;3.60;99.90;;;;;;6273462;28;20132;-82
2023/11/29 04:48:49;;;;;;;8.95;4.60;;;3.60;99.90;;;;;;6248627;28;20520;-83
2023/11/29 04:51:51;;;;;;;11.98;5.22;;;3.50;99.90;;;;;;6254502;28;20048;-82
2023/11/29 04:54:53;;;;;;;11.25;5.20;;;3.50;99.90;;;;;;6255189;28;20071;-82
2023/11/29 04:57:54;;;;;;;13.98;6.20;;;3.40;99.90;;;;;;6250490;28;20242;-82
2023/11/29 05:00:56;;;;;;;10.57;5.10;;;3.50;99.90;;;;;;6270148;28;20146;-84
2023/11/29 05:03:58;;;;;;;12.80;5.43;;;3.50;99.90;;;;;;6247920;28;20162;-84
2023/11/29 05:06:59;;;;;;;14.88;5.38;;;3.50;99.90;;;;;;6252002;28;20427;-84
2023/11/29 05:10:01;;;;;;;14.52;5.97;;;3.60;99.90;;;;;;6248000;28;20060;-84
2023/11/29 05:13:02;;;;;;;11.50;5.78;;;3.60;99.90;;;;;;6263596;28;20057;-83
2023/11/29 05:16:04;;;;;;;11.50;5.30;;;3.60;99.90;;;;;;6248445;28;20057;-83
2023/11/29 05:19:06;;;;;;;10.25;5.65;;;3.60;99.90;;;;;;6253951;28;20056;-83
2023/11/29 05:22:08;;;;;;;9.65;5.20;;;3.60;99.90;;;;;;6272132;28;20060;-84
2023/11/29 05:25:09;;;;;;;10.13;5.45;;;3.70;99.90;;;;;;6247560;28;20501;-83
2023/11/29 05:28:11;;;;;;;10.93;6.03;;;3.60;99.90;;;;;;6261914;28;20554;-83
2023/11/29 05:31:13;;;;;;;12.73;5.95;;;3.60;99.90;;;;;;6271244;28;20056;-83
2023/11/29 05:34:15;;;;;;;9.52;5.38;;;3.50;99.90;;;;;;6229970;28;20049;-84
2023/11/29 05:37:17;;;;;;;12.10;5.85;;;3.40;99.90;;;;;;6268685;28;20048;-83
2023/11/29 05:40:20;;;;;;;12.73;5.75;;;3.30;99.90;;;;;;6271928;28;20720;-84
2023/11/29 05:43:22;;;;;;;11.15;5.65;;;3.10;99.90;;;;;;6253916;28;20053;-83
2023/11/29 05:46:23;;;;;;;10.75;5.45;;;3.00;99.90;;;;;;6247335;28;20050;-84
2023/11/29 05:49:25;;;;;;;12.25;5.78;;;2.80;99.90;;;;;;6270734;28;20057;-84
2023/11/29 05:52:27;;;;;;;11.80;6.03;;;2.70;99.90;;;;;;6229318;28;20139;-84
2023/11/29 05:55:28;;;;;;;11.68;6.00;;;2.70;99.90;;;;;;6253044;28;20520;-84
2023/11/29 05:58:30;;;;;;;11.13;5.88;;;2.60;99.90;;;;;;6236763;28;20072;-86
2023/11/29 06:01:32;;;;;;;13.43;5.82;;;2.60;99.90;;;;;;6271251;28;20049;-84
2023/11/29 06:04:33;;;;;;;12.77;6.13;;;2.70;99.90;;;;;;6271337;28;20056;-84
2023/11/29 06:07:35;;;;;;;12.43;6.05;;;2.80;99.90;;;;;;6247473;28;20165;-84
2023/11/29 06:10:37;;;;;;;14.98;6.60;;;2.90;99.90;;;;;;6270470;28;20088;-83
2023/11/29 06:13:40;;;;;;;13.82;5.95;;;2.90;99.90;;;;;;6238869;28;20144;-84
2023/11/29 06:16:42;;;;;;;13.13;6.70;;;3.00;99.90;;;;;;6271323;28;20056;-83
2023/11/29 06:19:47;;;;;;;13.18;6.70;;;3.00;99.90;;;;;;6246868;28;20060;-84
2023/11/29 06:22:49;;;;;;;13.52;6.72;;;3.10;99.90;;;;;;6252900;28;20053;-83
2023/11/29 06:25:51;;;;;;;13.27;6.78;;;3.00;99.90;;;;;;6238876;22;20083;-84
2023/11/29 06:28:52;;;;;;;15.05;7.05;;;3.00;99.90;;;;;;6212328;28;20414;-83
2023/11/29 06:31:54;;;;;;;15.30;7.55;;;2.90;99.90;;;;;;6228371;28;20049;-84
2023/11/29 06:34:56;;;;;;;14.80;7.57;;;2.80;99.90;;;;;;6204653;28;20077;-84
2023/11/29 06:38:00;;;;;;;14.13;7.28;;;2.70;99.90;;;;;;6228640;28;20065;-84
2023/11/29 06:41:08;;;;;;;12.70;6.65;;;2.60;99.90;;;;;;6220818;28;20068;-84
2023/11/29 06:44:10;;;;;;;17.27;7.53;;;2.50;99.90;;;;;;6242433;28;20049;-84
2023/11/29 06:47:13;;;;;;;13.00;6.90;;;2.30;99.90;;;;;;6204844;28;20409;-84
2023/11/29 06:50:15;;;;;;;17.85;7.97;;;2.20;99.90;;;;;;6227668;28;20054;-84
2023/11/29 06:53:18;;;;;;;16.65;8.25;;;2.00;99.90;;;;;;6222447;28;20079;-84
2023/11/29 06:56:19;;;;;;;17.38;7.72;;;2.00;99.90;;;;;;6228305;28;20413;-84
2023/11/29 06:59:21;;;;;;;16.13;7.93;;;1.90;99.90;;;;;;6201106;28;20057;-83
2023/11/29 07:02:23;;;;;;;14.13;7.50;;;1.80;99.90;;;;;;6246350;28;20493;-85
2023/11/29 07:05:24;;;;;;;19.48;7.75;;;1.60;99.90;;;;;;6205414;28;20591;-86
2023/11/29 07:08:26;;;;;;;17.85;7.68;;;1.60;99.90;;;;;;6246132;28;20449;-86
2023/11/29 07:11:28;;;;;;;20.05;7.72;;;1.50;99.90;;;;;;6208079;28;20053;-86
2023/11/29 07:14:29;;;;;;;19.67;7.80;;;1.40;99.90;;;;;;6243051;28;20053;-86
2023/11/29 07:17:31;;;;;;;17.10;7.72;;;1.30;99.90;;;;;;6203745;28;20064;-86
2023/11/29 07:20:33;;;;;;;19.02;7.68;;;1.20;99.90;;;;;;6226719;28;20179;-86
2023/11/29 07:23:46;;;;;;;20.25;8.30;;;1.10;99.90;;;;;;6220341;28;20085;-86
2023/11/29 07:26:48;;;;;;;18.75;9.07;;;1.20;99.90;;;;;;6223592;28;20053;-85
2023/11/29 07:29:50;;;;;;;18.90;7.95;;;1.10;99.90;;;;;;6168934;28;20081;-85
2023/11/29 07:32:52;;;;;;;22.08;8.52;;;1.10;99.90;;;;;;6194453;28;20399;-84
2023/11/29 07:35:53;;;;;;;18.05;8.38;;;1.10;99.90;;;;;;6170699;28;20070;-85
2023/11/29 07:38:55;;;;;;;16.23;8.30;;;0.90;99.90;;;;;;6194158;28;20535;-85
2023/11/29 07:41:57;;;;;;;17.05;8.38;;;1.00;99.90;;;;;;6172443;28;20114;-83
2023/11/29 07:44:59;;;;;;;18.42;8.10;;;0.90;99.90;;;;;;6193639;28;20445;-83
2023/11/29 07:48:01;;;;;;;19.42;8.55;;;0.90;99.90;;;;;;6170268;28;20128;-83
2023/11/29 07:51:03;;;;;;;18.65;8.60;;;0.90;99.90;;;;;;6194981;28;20085;-81
2023/11/29 07:54:06;;;;;;;17.42;8.02;;;0.90;99.90;;;;;;6171310;28;20065;-83
2023/11/29 07:57:07;;;;;;;20.75;9.10;;;0.90;99.90;;;;;;6193010;28;20525;-83
2023/11/29 08:00:12;;;;;;;22.35;9.13;;;1.00;99.90;;;;;;6187404;28;20065;-83
2023/11/29 08:03:16;;;;;;;17.70;9.30;;;1.00;99.90;;;;;;6172147;28;20109;-84
2023/11/29 08:06:20;;;;;;;18.05;8.30;;;1.00;99.90;;;;;;6223567;23;20057;-84
2023/11/29 08:09:22;;;;;;;22.60;8.50;;;1.10;99.90;;;;;;6219164;28;20513;-83
2023/11/29 08:12:23;;;;;;;18.27;8.60;;;1.10;99.90;;;;;;6242467;28;20126;-84
2023/11/29 08:15:28;;;;;;;18.90;8.02;;;1.20;99.90;;;;;;6244368;28;20140;-87
2023/11/29 08:18:30;;;;;;;18.10;8.85;;;1.20;99.90;;;;;;6218164;28;20152;-85
2023/11/29 08:21:32;;;;;;;20.63;9.32;;;1.30;99.90;;;;;;6242771;28;20126;-83
2023/11/29 08:24:35;;;;;;;18.83;9.20;;;1.40;99.90;;;;;;6219213;28;20054;-82
2023/11/29 08:27:36;;;;;;;21.80;9.70;;;1.50;99.90;;;;;;6229762;28;20497;-76
2023/11/29 08:30:38;;;;;;;18.88;9.65;;;1.60;99.90;;;;;;6218314;28;20157;-83
2023/11/29 08:33:40;;;;;;;20.65;9.90;;;1.80;99.90;;;;;;6217519;28;20122;-85
2023/11/29 08:36:42;;;;;;;20.35;9.45;;;2.00;99.90;;;;;;6243705;28;20053;-85
2023/11/29 08:39:46;;;;;;;17.98;9.63;;;2.10;99.90;;;;;;6219885;28;20139;-86
2023/11/29 08:42:48;;;;;;;21.67;10.73;;;2.30;99.90;;;;;;6241065;28;20049;-85
2023/11/29 08:45:50;;;;;;;18.83;9.23;;;2.40;99.90;;;;;;6246203;28;20053;-86
2023/11/29 08:48:52;;;;;;;16.77;9.05;;;2.60;99.90;;;;;;6223031;28;20583;-85
2023/11/29 08:51:55;;;;;;;18.50;9.10;;;2.70;99.90;;;;;;6246982;28;20437;-84
2023/11/29 08:54:57;;;;;;;19.30;9.15;;;2.90;99.90;;;;;;6230569;28;20065;-83
2023/11/29 08:57:58;;;;;;;18.67;9.23;;;3.00;99.90;;;;;;6239236;28;20100;-80
2023/11/29 09:01:00;;;;;;;18.98;9.82;;;3.10;99.90;;;;;;6216711;28;20421;-83
2023/11/29 09:04:02;;;;;;;16.10;9.25;;;3.30;99.90;;;;;;6223826;28;20072;-85
2023/11/29 09:07:04;;;;;;;19.05;8.77;;;3.40;99.90;;;;;;6231917;28;20057;-83
2023/11/29 09:10:06;;;;;;;17.08;8.90;;;3.50;99.90;;;;;;6242614;28;20484;-83
2023/11/29 09:13:08;;;;;;;18.65;8.77;;;3.60;99.90;;;;;;6227543;28;20056;-83
2023/11/29 09:16:11;;;;;;;16.50;9.40;;;3.70;99.90;;;;;;6248267;28;20061;-83
2023/11/29 09:19:12;;;;;;;17.48;8.80;;;3.80;99.90;;;;;;6223802;28;20549;-83
2023/11/29 09:22:14;;;;;;;16.23;8.93;;;3.90;99.90;;;;;;6247990;28;20501;-84
2023/11/29 09:25:16;;;;;;;17.23;9.55;;;4.10;99.90;;;;;;6223410;28;20421;-83
2023/11/29 09:28:17;;;;;;;16.23;9.07;;;4.40;99.90;;;;;;6233032;28;20053;-83
2023/11/29 09:31:19;;;;;;;15.40;8.60;;;4.80;99.90;;;;;;6222837;28;20056;-84
2023/11/29 09:34:22;;;;;;;12.68;7.53;;;5.40;99.90;;;;;;6222497;28;20056;-86
2023/11/29 09:37:23;;;;;;;15.65;6.50;;;5.80;99.90;;;;;;6246755;28;20493;-83
2023/11/29 09:40:26;;;;;;;12.45;5.97;;;6.40;99.90;;;;;;6223353;28;20050;-83
2023/11/29 09:43:28;;;;;;;15.60;6.63;;;6.90;99.90;;;;;;6231774;28;20084;-85
2023/11/29 09:46:29;;;;;;;14.88;5.93;;;7.40;99.90;;;;;;6222920;28;20532;-84
2023/11/29 09:49:32;;;;;;;15.60;6.53;;;7.60;99.90;;;;;;6236973;28;20053;-86
2023/11/29 09:52:33;;;;;;;15.05;6.35;;;7.90;99.90;;;;;;6223049;28;20050;-85
2023/11/29 09:55:35;;;;;;;15.32;6.72;;;8.00;92.10;;;;;;6241377;28;20053;-85
2023/11/29 09:58:37;;;;;;;15.65;6.18;;;8.30;91.20;;;;;;6221320;28;20053;-85
2023/11/29 10:01:39;;;;;;;13.35;6.30;;;8.80;53.20;;;;;;6231124;28;20179;-85
2023/11/29 10:04:41;;;;;;;15.65;6.68;;;8.70;51.90;;;;;;6222926;28;20084;-86
2023/11/29 10:07:43;;;;;;;12.68;6.15;;;8.50;75.90;;;;;;6229042;28;20061;-86
2023/11/29 10:10:45;;;;;;;13.35;6.00;;;8.80;72.30;;;;;;6224567;28;20467;-86
2023/11/29 10:13:46;;;;;;;16.05;6.97;;;9.20;81.70;;;;;;6230028;28;20053;-87
2023/11/29 10:16:52;;;;;;;16.85;6.32;;;9.60;72.90;;;;;;6246479;28;20060;-86
2023/11/29 10:19:55;;;;;;;12.80;5.72;;;9.80;48.40;;;;;;6223526;28;20050;-87
2023/11/29 10:22:56;;;;;;;13.45;6.88;;;10.00;1.00;;;;;;6240257;28;20058;-88
2023/11/29 10:25:59;;;;;;;14.07;6.88;;;10.30;10.00;;;;;;6246478;28;20184;-90
2023/11/29 10:29:00;;;;;;;12.05;6.07;;;10.40;1.00;;;;;;6230575;28;20046;-86
2023/11/29 10:32:02;;;;;;;12.48;6.82;;;10.90;1.00;;;;;;6246580;28;20060;-87
2023/11/29 10:35:05;;;;;;;12.80;7.07;;;11.20;1.00;;;;;;6244591;28;20085;-85
2023/11/29 10:38:07;;;;;;;14.18;7.50;;;11.50;1.00;;;;;;6222928;28;20058;-87
2023/11/29 10:41:08;;;;;;;16.50;7.30;;;11.70;1.00;;;;;;6245082;28;20049;-89
2023/11/29 10:44:10;;;;;;;17.33;6.93;;;11.40;1.00;;;;;;6228327;28;20069;-88
2023/11/29 10:47:12;;;;;;;13.23;7.07;;;11.30;1.00;;;;;;6246142;28;20052;-88
2023/11/29 10:50:13;;;;;;;15.82;7.50;;;11.10;1.00;;;;;;6222184;28;20061;-87
2023/11/29 10:53:15;;;;;;;20.45;8.40;;;11.30;1.00;;;;;;6245116;28;20409;-89
2023/11/29 10:56:16;;;;;;;15.18;8.05;;;11.50;1.00;;;;;;6248269;28;20064;-89
2023/11/29 10:59:18;;;;;;;14.48;7.57;;;11.90;1.00;;;;;;6219280;28;20442;-89
2023/11/29 11:02:20;;;;;;;13.25;6.97;;;12.10;1.00;;;;;;6244468;28;20049;-88
2023/11/29 11:05:22;;;;;;;12.80;7.30;;;12.40;1.00;;;;;;6222781;28;20148;-86
2023/11/29 11:08:24;;;;;;;15.90;7.25;;;12.70;1.00;;;;;;6246096;28;20485;-88
2023/11/29 11:11:25;;;;;;;12.50;6.60;;;12.80;1.00;;;;;;6222654;28;20152;-90
2023/11/29 11:14:27;;;;;;;13.13;6.50;;;12.80;1.00;;;;;;6236028;28;20065;-90
2023/11/29 11:17:29;;;;;;;13.00;6.10;;;13.10;1.00;;;;;;6232746;28;20133;-90
2023/11/29 11:20:31;;;;;;;14.70;6.28;;;13.50;1.00;;;;;;6247605;28;20499;-88
2023/11/29 11:23:32;;;;;;;13.80;6.57;;;13.70;1.00;;;;;;6221737;28;20234;-90
2023/11/29 11:26:35;;;;;;;14.68;6.25;;;13.40;1.00;;;;;;6237451;28;20516;-91
2023/11/29 11:29:37;;;;;;;11.43;6.28;;;13.60;1.00;;;;;;6244743;28;20057;-89
2023/11/29 11:32:40;;;;;;;12.80;6.20;;;13.50;1.00;;;;;;6223319;28;20509;-95
2023/11/29 11:35:41;;;;;;;13.35;6.68;;;13.30;1.00;;;;;;6246120;28;20046;-88
2023/11/29 11:38:43;;;;;;;12.02;6.20;;;12.90;1.00;;;;;;6248487;28;20532;-90
2023/11/29 11:41:45;;;;;;;13.13;5.80;;;13.30;1.00;;;;;;6231536;28;20096;-86
2023/11/29 11:44:48;;;;;;;14.65;6.03;;;13.40;1.00;;;;;;6220771;28;20093;-89
2023/11/29 11:47:49;;;;;;;13.15;5.88;;;13.60;1.00;;;;;;6237049;28;20394;-87
2023/11/29 11:50:51;;;;;;;13.68;6.30;;;13.20;1.00;;;;;;6243709;28;20058;-87
2023/11/29 11:53:53;;;;;;;11.70;6.30;;;13.10;1.00;;;;;;6220026;28;20053;-91
2023/11/29 11:56:55;;;;;;;13.75;5.53;;;12.80;1.00;;;;;;6229290;28;20049;-85
2023/11/29 11:59:57;;;;;;;11.27;5.90;;;12.70;1.00;;;;;;6217042;28;20053;-87
2023/11/29 12:03:00;;;;;;;14.52;5.70;;;12.70;1.00;;;;;;6236487;28;20140;-90
2023/11/29 12:06:05;;;;;;;14.05;6.32;;;12.60;1.00;;;;;;6237176;28;20123;-88
2023/11/29 12:09:11;;;;;;;13.57;6.05;;;12.60;1.00;;;;;;6245119;28;20084;-91
2023/11/29 12:12:14;;;;;;;13.75;6.47;;;12.30;1.00;;;;;;6220879;28;20054;-89
2023/11/29 12:15:16;;;;;;;14.55;5.78;;;12.80;1.00;;;;;;6245039;28;20512;-92
2023/11/29 12:18:19;;;;;;;12.18;5.90;;;12.60;1.00;;;;;;6241471;28;20110;-93
2023/11/29 12:21:21;;;;;;;12.80;6.50;;;12.30;1.00;;;;;;6242321;28;20133;-90
2023/11/29 12:24:23;;;;;;;13.63;6.25;;;12.40;1.00;;;;;;6226084;28;20057;-92
2023/11/29 12:27:28;;;;;;;15.18;6.47;;;12.30;1.00;;;;;;6220739;28;20136;-91
2023/11/29 12:30:30;;;;;;;13.65;6.43;;;12.10;1.00;;;;;;6244896;28;20061;-90
2023/11/29 12:33:32;;;;;;;17.33;7.50;;;12.20;1.00;;;;;;6220218;28;20045;-92
2023/11/29 12:36:36;;;;;;;14.63;6.13;;;12.30;1.00;;;;;;6246006;28;20135;-89
2023/11/29 12:39:37;;;;;;;12.98;6.60;;;12.50;1.00;;;;;;6247225;28;20068;-90
2023/11/29 12:42:39;;;;;;;14.35;6.70;;;12.40;1.00;;;;;;6229048;28;20497;-92
2023/11/29 12:45:41;;;;;;;13.45;6.97;;;12.20;1.00;;;;;;6223313;28;20124;-93
2023/11/29 12:48:42;;;;;;;14.60;6.20;;;12.10;1.00;;;;;;6225776;28;20061;-94
2023/11/29 12:51:44;;;;;;;11.40;5.90;;;12.30;1.00;;;;;;6248870;28;20116;-93
2023/11/29 12:54:46;;;;;;;12.75;6.03;;;12.50;1.00;;;;;;6252280;28;20057;-92
2023/11/29 12:57:47;;;;;;;12.07;6.13;;;12.50;1.00;;;;;;6241460;28;20057;-92
2023/11/29 13:00:49;;;;;;;16.48;6.80;;;12.70;1.00;;;;;;6224589;28;20061;-93
2023/11/29 13:03:51;;;;;;;15.93;7.07;;;12.40;1.00;;;;;;6243632;23;20064;-89
2023/11/29 13:06:52;;;;;;;12.80;6.10;;;12.10;1.00;;;;;;6234101;28;20412;-89
2023/11/29 13:09:55;;;;;;;14.93;5.72;;;11.90;1.00;;;;;;6227766;28;20057;-90
2023/11/29 13:12:58;;;;;;;15.45;6.90;;;11.10;1.00;;;;;;6227010;28;20064;-90
2023/11/29 13:16:00;;;;;;;13.93;7.45;;;10.30;1.00;;;;;;6208847;28;20085;-88
2023/11/29 13:19:06;;;;;;;17.52;7.78;;;9.90;1.00;;;;;;6226441;28;20188;-89
2023/11/29 13:22:08;;;;;;;14.30;7.05;;;9.80;1.00;;;;;;6248452;28;20050;-88
2023/11/29 13:25:10;;;;;;;15.30;7.25;;;9.40;1.00;;;;;;6207959;28;20064;-88
2023/11/29 13:28:11;;;;;;;11.85;6.88;;;9.10;1.00;;;;;;6233623;28;20065;-88
2023/11/29 13:31:13;;;;;;;16.10;6.95;;;8.70;1.00;;;;;;6208688;28;20062;-88
2023/11/29 13:34:17;;;;;;;14.75;6.72;;;8.30;1.00;;;;;;6232252;28;20752;-87
2023/11/29 13:37:20;;;;;;;17.80;7.03;;;8.10;1.00;;;;;;6232777;28;20401;-87
2023/11/29 13:40:22;;;;;;;14.52;6.60;;;7.80;1.00;;;;;;6231329;28;20053;-87
2023/11/29 13:43:24;;;;;;;15.45;6.47;;;7.50;1.00;;;;;;6215351;28;20049;-87
2023/11/29 13:46:27;;;;;;;16.08;6.72;;;7.20;1.00;;;;;;6224154;28;20417;-86
2023/11/29 13:49:29;;;;;;;15.73;6.05;;;7.00;1.00;;;;;;6230824;28;20050;-85
2023/11/29 13:52:31;;;;;;;19.70;6.38;;;6.80;1.00;;;;;;6232222;28;20140;-85
2023/11/29 13:55:33;;;;;;;12.13;5.45;;;6.50;1.00;;;;;;6205942;28;20049;-86
2023/11/29 13:58:34;;;;;;;13.60;5.53;;;6.40;1.00;;;;;;6245556;28;20128;-86
2023/11/29 14:01:37;;;;;;;17.13;5.90;;;6.20;1.00;;;;;;6205355;28;20051;-85
2023/11/29 14:04:39;;;;;;;16.67;5.90;;;6.10;1.00;;;;;;6234196;28;20068;-85
2023/11/29 14:07:41;;;;;;;13.68;5.53;;;5.90;1.00;;;;;;6247930;28;20049;-85
2023/11/29 14:10:43;;;;;;;15.48;5.30;;;5.80;1.00;;;;;;6205339;28;20049;-84
2023/11/29 14:13:45;;;;;;;15.88;5.45;;;5.70;3.00;;;;;;6248997;28;20123;-85
2023/11/29 14:16:47;;;;;;;14.55;4.97;;;5.60;12.10;;;;;;6222567;28;20053;-84
2023/11/29 14:19:49;;;;;;;12.88;5.50;;;5.50;8.60;;;;;;6246396;28;20053;-84
2023/11/29 14:22:52;;;;;;;16.42;5.35;;;5.50;13.50;;;;;;6229169;28;20061;-85
2023/11/29 14:25:53;;;;;;;13.93;5.13;;;5.40;8.30;;;;;;6223561;28;20417;-88
2023/11/29 14:28:55;;;;;;;12.35;5.05;;;5.50;11.50;;;;;;6218753;28;20057;-85
2023/11/29 14:31:57;;;;;;;11.93;5.25;;;5.60;9.80;;;;;;6221347;28;20124;-87
2023/11/29 14:34:59;;;;;;;15.27;5.28;;;5.60;10.60;;;;;;6222649;28;20054;-87
2023/11/29 14:38:00;;;;;;;16.45;5.20;;;5.70;10.00;;;;;;6224538;28;20519;-87
2023/11/29 14:41:04;;;;;;;12.98;5.30;;;5.80;7.30;;;;;;6207660;28;20054;-84
2023/11/29 14:44:13;;;;;;;12.35;4.93;;;5.80;5.00;;;;;;6219511;28;20049;-86
2023/11/29 14:47:15;;;;;;;13.32;4.70;;;6.00;8.10;;;;;;6228061;28;20057;-86
2023/11/29 14:50:16;;;;;;;11.57;4.63;;;6.00;1.00;;;;;;6221614;28;20138;-88
2023/11/29 14:53:18;;;;;;;13.35;4.40;;;6.10;5.20;;;;;;6235375;28;20053;-88
2023/11/29 14:56:20;;;;;;;13.90;4.95;;;6.20;1.00;;;;;;6229098;28;20092;-89
2023/11/29 14:59:29;;;;;;;14.55;5.20;;;6.10;1.00;;;;;;6248555;28;20065;-86
2023/11/29 15:02:33;;;;;;;11.63;5.18;;;6.20;2.10;;;;;;6236446;28;20076;-87
2023/11/29 15:05:34;;;;;;;15.13;5.22;;;6.10;2.50;;;;;;6244905;28;20061;-86
2023/11/29 15:08:36;;;;;;;16.88;5.78;;;6.10;8.50;;;;;;6203731;28;20153;-85
2023/11/29 15:11:38;;;;;;;13.85;5.30;;;6.10;11.10;;;;;;6229241;28;20068;-88
2023/11/29 15:14:40;;;;;;;11.93;5.75;;;6.00;12.10;;;;;;6206750;28;20050;-88
2023/11/29 15:17:43;;;;;;;15.35;6.10;;;6.10;14.40;;;;;;6231184;28;20053;-85
2023/11/29 15:20:45;;;;;;;14.38;5.97;;;6.00;14.50;;;;;;6230087;28;20053;-84
2023/11/29 15:23:47;;;;;;;15.80;6.13;;;5.90;16.80;;;;;;6233124;28;20089;-87
2023/11/29 15:26:49;;;;;;;12.45;5.65;;;5.80;16.70;;;;;;6271118;28;20037;-88
2023/11/29 15:29:50;;;;;;;15.50;5.88;;;5.80;15.00;;;;;;6230550;28;20121;-86
2023/11/29 15:32:52;;;;;;;17.67;5.72;;;5.60;18.00;;;;;;6252531;28;20053;-84
2023/11/29 15:35:54;;;;;;;15.68;6.00;;;5.60;23.70;;;;;;6269488;28;20171;-85
2023/11/29 15:39:00;;;;;;;14.25;5.85;;;5.50;17.80;;;;;;6236238;28;20413;-85
2023/11/29 15:42:03;;;;;;;11.30;5.35;;;5.40;16.50;;;;;;6249963;28;20059;-82
2023/11/29 15:45:05;;;;;;;15.02;5.55;;;5.40;20.60;;;;;;6211588;28;20046;-85
2023/11/29 15:48:07;;;;;;;15.07;5.88;;;5.40;27.60;;;;;;6264875;28;20049;-85